Time;durP1;ratioP1;P1;durP2;ratioP2;P2;SDS_P1;SDS_P2;PMS_P1;PMS_P2;Temp;Humidity;BMP_temperature;BMP_pressure;BME280_temperature;BME280_humidity;BME280_pressure;Samples;Min_cycle;Max_cycle;Signal;HPM_P1;HPM_P2
2024/04/05 00:00:13;;;;;;;0.10;0.10;;;;;;;11.57;94.34;151587.31;10522973;28;20044;-73
2024/04/05 00:05:14;;;;;;;0.38;0.20;;;;;;;11.70;92.73;151618.34;10523529;28;20036;-73
2024/04/05 00:10:15;;;;;;;0.47;0.20;;;;;;;11.59;93.34;151592.47;10506118;28;20047;-73
2024/04/05 00:15:16;;;;;;;0.30;0.20;;;;;;;11.59;92.48;151592.47;10505698;28;20043;-74
2024/04/05 00:20:17;;;;;;;0.40;0.20;;;;;;;11.55;92.65;151580.84;10522218;28;20036;-72
2024/04/05 00:25:18;;;;;;;0.47;0.20;;;;;;;11.58;92.35;151589.91;10522442;28;20040;-74
2024/04/05 00:30:19;;;;;;;1.15;0.20;;;;;;;11.63;91.59;151602.81;10522972;28;20496;-74
2024/04/05 00:35:20;;;;;;;1.20;0.45;;;;;;;11.55;92.41;151582.19;10505622;28;20040;-74
2024/04/05 00:40:20;;;;;;;0.95;0.22;;;;;;;11.55;91.87;151582.19;10505590;28;20135;-73
2024/04/05 00:45:21;;;;;;;0.77;0.35;;;;;;;11.60;90.97;151595.09;10522240;28;20044;-73
2024/04/05 00:50:22;;;;;;;1.10;0.10;;;;;;;11.46;92.01;151558.88;10522657;28;20396;-74
2024/04/05 00:55:23;;;;;;;0.70;0.22;;;;;;;11.33;92.94;151526.63;10521210;28;20054;-72
2024/04/05 01:00:24;;;;;;;0.80;0.22;;;;;;;11.31;92.68;151521.41;10505020;28;20051;-74
2024/04/05 01:05:25;;;;;;;2.97;0.45;;;;;;;11.24;93.29;151502.03;10523438;28;20108;-72
2024/04/05 01:10:25;;;;;;;1.05;0.40;;;;;;;11.37;92.20;151535.63;10521930;28;20048;-73
2024/04/05 01:15:26;;;;;;;1.48;0.30;;;;;;;11.42;91.73;151547.25;10505009;28;20131;-73
2024/04/05 01:20:30;;;;;;;1.25;0.40;;;;;;;11.41;91.85;151544.69;10521680;28;20040;-73
2024/04/05 01:25:32;;;;;;;1.08;0.22;;;;;;;11.44;91.59;151552.44;10521256;28;20090;-74
2024/04/05 01:30:32;;;;;;;1.13;0.22;;;;;;;11.41;91.83;151544.69;10521344;28;20053;-73
2024/04/05 01:35:33;;;;;;;1.27;0.35;;;;;;;11.51;91.06;151571.84;10521060;28;20044;-72
2024/04/05 01:40:34;;;;;;;0.32;0.20;;;;;;;11.51;90.66;151570.50;10521372;28;20044;-73
2024/04/05 01:45:35;;;;;;;0.65;0.30;;;;;;;11.49;90.99;151566.63;10521291;28;20399;-73
2024/04/05 01:50:36;;;;;;;1.38;0.28;;;;;;;11.48;91.11;151562.78;10521130;28;20040;-72
2024/04/05 01:55:37;;;;;;;0.95;0.25;;;;;;;11.46;90.78;151557.59;10504332;28;20492;-73
2024/04/05 02:00:38;;;;;;;1.83;0.30;;;;;;;11.32;91.63;151522.72;10524461;28;20086;-73
2024/04/05 02:05:38;;;;;;;0.85;0.25;;;;;;;11.43;89.99;151551.16;10529398;28;20036;-74
2024/04/05 02:10:39;;;;;;;1.63;0.40;;;;;;;11.44;89.30;151553.72;10529740;28;20074;-72
2024/04/05 02:15:46;;;;;;;0.70;0.40;;;;;;;11.33;89.89;151525.28;10529709;28;20035;-73
2024/04/05 02:20:57;;;;;;;4.32;0.73;;;;;;;11.24;89.97;151503.31;10528322;28;20581;-73
2024/04/05 02:25:57;;;;;;;0.30;0.20;;;;;;;11.22;90.14;151496.88;10528393;28;20062;-74
2024/04/05 02:30:58;;;;;;;1.30;0.30;;;;;;;11.26;89.40;151507.22;10528021;28;20092;-74
2024/04/05 02:35:59;;;;;;;1.27;0.45;;;;;;;11.30;88.72;151517.56;10527152;28;20115;-73
2024/04/05 02:41:04;;;;;;;1.65;0.43;;;;;;;11.28;88.71;151512.38;10527125;28;20063;-73
2024/04/05 02:46:05;;;;;;;1.33;0.40;;;;;;;11.11;90.08;151469.72;10527039;28;20040;-73
2024/04/05 02:51:06;;;;;;;0.93;0.75;;;;;;;11.00;90.42;151441.34;10527111;28;20044;-73
2024/04/05 02:56:08;;;;;;;1.75;0.47;;;;;;;11.17;88.96;151483.97;10526851;28;20040;-73
2024/04/05 03:01:09;;;;;;;2.67;0.40;;;;;;;11.02;89.80;151447.81;10526378;28;20032;-73
2024/04/05 03:06:10;;;;;;;1.40;0.40;;;;;;;11.06;89.44;151458.09;10526261;28;20039;-73
2024/04/05 03:11:10;;;;;;;2.38;0.35;;;;;;;10.87;90.53;151409.06;10525894;28;20056;-73
2024/04/05 03:16:12;;;;;;;1.23;0.50;;;;;;;10.85;90.84;151405.19;10525926;28;20044;-73
2024/04/05 03:21:13;;;;;;;1.75;0.73;;;;;;;10.73;91.36;151372.91;10528843;28;20043;-73
2024/04/05 03:26:14;;;;;;;0.40;0.38;;;;;;;10.64;91.80;151350.94;10528016;28;20047;-74
2024/04/05 03:31:15;;;;;;;0.80;0.40;;;;;;;10.48;92.47;151310.91;10526881;28;20427;-74
2024/04/05 03:36:15;;;;;;;0.73;0.30;;;;;;;10.51;92.55;151318.66;10509682;28;20092;-74
2024/04/05 03:41:16;;;;;;;0.68;0.35;;;;;;;10.33;93.39;151273.47;10526418;28;20040;-74
2024/04/05 03:46:19;;;;;;;1.67;0.50;;;;;;;10.49;92.04;151313.53;10526133;28;20083;-74
2024/04/05 03:51:20;;;;;;;1.80;0.50;;;;;;;10.41;92.35;151292.84;10524531;28;20097;-74
2024/04/05 03:56:20;;;;;;;2.22;0.52;;;;;;;10.42;91.90;151295.44;10524629;28;20089;-74
2024/04/05 04:01:21;;;;;;;1.45;0.45;;;;;;;10.40;91.51;151290.22;10524854;28;20040;-75
2024/04/05 04:06:22;;;;;;;2.38;0.40;;;;;;;10.27;92.53;151256.66;10508743;28;20072;-74
2024/04/05 04:11:23;;;;;;;2.05;0.63;;;;;;;10.10;93.31;151215.34;10527051;28;20075;-73
2024/04/05 04:16:24;;;;;;;2.45;0.60;;;;;;;10.07;93.41;151207.59;10507391;28;20089;-74
2024/04/05 04:21:26;;;;;;;2.15;0.43;;;;;;;9.94;94.12;151172.75;10521698;28;20051;-73
2024/04/05 04:26:27;;;;;;;1.60;0.40;;;;;;;9.99;93.58;151186.94;10506364;28;20032;-74
2024/04/05 04:31:28;;;;;;;2.00;0.40;;;;;;;9.99;93.12;151185.66;10524061;28;20048;-73
2024/04/05 04:36:29;;;;;;;1.05;0.45;;;;;;;9.91;93.20;151166.28;10523368;28;20032;-74
2024/04/05 04:41:30;;;;;;;1.20;0.50;;;;;;;9.99;92.48;151185.66;10507233;28;20181;-74
2024/04/05 04:46:32;;;;;;;2.00;0.50;;;;;;;10.04;92.67;151198.53;10506051;28;20085;-74
2024/04/05 04:51:33;;;;;;;3.28;0.55;;;;;;;10.04;91.89;151198.53;10522616;28;20431;-73
2024/04/05 04:56:33;;;;;;;3.97;0.70;;;;;;;9.98;92.80;151183.06;10505691;28;20036;-73
2024/04/05 05:01:37;;;;;;;2.75;0.88;;;;;;;10.26;91.56;151255.38;10522541;28;20035;-74
2024/04/05 05:06:38;;;;;;;1.20;1.00;;;;;;;10.51;90.65;151318.66;10523672;28;20089;-74
2024/04/05 05:11:39;;;;;;;1.52;0.70;;;;;;;10.67;90.02;151358.72;10491079;28;20085;-74
2024/04/05 05:16:40;;;;;;;2.35;0.88;;;;;;;10.79;90.11;151388.38;10524780;28;20044;-74
2024/04/05 05:21:41;;;;;;;2.42;0.60;;;;;;;11.02;88.38;151447.81;10523799;28;20044;-74
2024/04/05 05:26:41;;;;;;;2.30;0.68;;;;;;;11.20;87.45;151491.69;10507585;28;20166;-75
2024/04/05 05:31:42;;;;;;;1.55;0.57;;;;;;;11.21;87.98;151494.31;10524363;28;20383;-74
2024/04/05 05:36:43;;;;;;;6.00;0.82;;;;;;;11.37;87.40;151535.63;10514579;28;20036;-75
2024/04/05 05:41:44;;;;;;;1.33;0.63;;;;;;;11.66;85.99;151608.00;10531779;28;20071;-74
2024/04/05 05:46:45;;;;;;;2.00;1.50;;;;;;;11.77;85.61;151636.41;10516513;28;20040;-73
2024/04/05 05:51:46;;;;;;;1.48;0.50;;;;;;;11.92;84.93;151675.25;10532718;28;20040;-74
2024/04/05 05:56:47;;;;;;;2.45;0.70;;;;;;;12.01;85.20;151697.22;10515306;28;20114;-74
2024/04/05 06:01:48;;;;;;;1.58;0.50;;;;;;;11.91;87.75;151671.34;10531156;28;20068;-74
2024/04/05 06:06:49;;;;;;;3.72;0.68;;;;;;;12.12;85.48;151726.94;10530018;28;20040;-73
2024/04/05 06:11:51;;;;;;;1.77;0.90;;;;;;;12.05;85.65;151708.88;10512564;28;20500;-75
2024/04/05 06:16:53;;;;;;;1.55;0.40;;;;;;;12.12;85.47;151726.94;10529373;28;20051;-73
2024/04/05 06:21:54;;;;;;;2.42;0.80;;;;;;;12.04;87.65;151704.94;10514394;28;20126;-74
2024/04/05 06:26:55;;;;;;;1.45;0.50;;;;;;;12.20;87.52;151745.03;10529791;28;20032;-74
2024/04/05 06:31:56;;;;;;;1.67;0.50;;;;;;;12.51;84.23;151825.19;10531403;28;20124;-72
2024/04/05 06:36:56;;;;;;;1.40;0.32;;;;;;;12.72;82.67;151878.22;10512932;28;20040;-72
2024/04/05 06:41:57;;;;;;;3.60;0.45;;;;;;;12.92;82.21;151928.66;10530951;28;20040;-73
2024/04/05 06:46:58;;;;;;;1.70;0.40;;;;;;;13.26;79.97;152015.38;10531236;28;20042;-74
2024/04/05 06:52:01;;;;;;;1.33;0.50;;;;;;;13.35;82.21;152037.38;10529931;28;20070;-73
2024/04/05 06:57:03;;;;;;;1.27;0.40;;;;;;;13.65;80.58;152113.72;10513153;28;20036;-73
2024/04/05 07:02:04;;;;;;;1.77;0.47;;;;;;;13.79;79.37;152148.66;10530210;28;20074;-73
2024/04/05 07:07:05;;;;;;;1.98;0.50;;;;;;;14.06;79.22;152217.25;10530865;28;20403;-73
2024/04/05 07:12:07;;;;;;;2.28;0.60;;;;;;;14.27;79.70;152271.66;10511412;28;20046;-73
2024/04/05 07:17:08;;;;;;;1.77;0.55;;;;;;;14.66;76.95;152370.13;10527732;28;20036;-73
2024/04/05 07:22:11;;;;;;;3.03;0.60;;;;;;;15.02;74.30;152462.06;10528173;28;20044;-73
2024/04/05 07:27:12;;;;;;;1.58;0.40;;;;;;;15.17;74.15;152498.34;10527299;28;20036;-73
2024/04/05 07:32:13;;;;;;;1.45;0.40;;;;;;;15.36;71.68;152548.88;10527175;28;20036;-74
2024/04/05 07:37:14;;;;;;;2.38;0.60;;;;;;;15.39;71.24;152555.34;10528822;28;20052;-74
2024/04/05 07:42:16;;;;;;;3.97;0.73;;;;;;;15.31;71.54;152535.88;10527846;28;20040;-74
2024/04/05 07:47:17;;;;;;;1.00;0.40;;;;;;;15.38;72.74;152552.75;10509913;28;20044;-74
2024/04/05 07:52:20;;;;;;;2.13;0.40;;;;;;;15.34;74.36;152542.38;10529285;28;20044;-75
2024/04/05 07:57:21;;;;;;;1.20;0.35;;;;;;;15.46;72.22;152573.50;10526925;28;20051;-75
2024/04/05 08:02:27;;;;;;;1.90;0.50;;;;;;;15.53;72.08;152591.59;10510080;28;20131;-73
2024/04/05 08:07:29;;;;;;;2.58;0.88;;;;;;;15.57;73.00;152600.69;10526996;28;20510;-74
2024/04/05 08:12:30;;;;;;;1.65;0.30;;;;;;;15.77;71.44;152652.59;10508284;28;20070;-73
2024/04/05 08:17:30;;;;;;;0.88;0.40;;;;;;;15.69;72.58;152630.56;10525207;28;20036;-73
2024/04/05 08:22:32;;;;;;;2.35;0.70;;;;;;;15.80;71.53;152659.03;10524750;28;20482;-74
2024/04/05 08:27:34;;;;;;;4.40;0.50;;;;;;;15.96;71.85;152700.53;10524000;28;20066;-73
2024/04/05 08:32:36;;;;;;;2.67;1.02;;;;;;;15.94;72.92;152695.38;10524188;28;20459;-74
2024/04/05 08:37:37;;;;;;;4.00;0.88;;;;;;;15.85;73.99;152672.06;10525295;28;20115;-75
2024/04/05 08:42:39;;;;;;;1.08;0.32;;;;;;;16.08;71.90;152730.38;10523400;28;20048;-73
2024/04/05 08:47:41;;;;;;;0.63;0.40;;;;;;;16.33;71.02;152793.88;10523343;28;20385;-73
2024/04/05 08:52:42;;;;;;;1.17;0.65;;;;;;;16.58;69.79;152857.44;10522922;28;20197;-73
2024/04/05 08:57:43;;;;;;;0.93;0.40;;;;;;;16.75;70.55;152900.28;10523099;28;20061;-74
2024/04/05 09:02:46;;;;;;;0.80;0.30;;;;;;;16.91;69.10;152941.81;10524858;28;20565;-74
2024/04/05 09:07:47;;;;;;;2.40;0.70;;;;;;;16.84;70.35;152923.63;10523863;28;20128;-74
2024/04/05 09:12:57;;;;;;;1.42;0.40;;;;;;;17.36;68.88;153055.97;10531540;28;20078;-74
2024/04/05 09:17:58;;;;;;;2.38;0.52;;;;;;;17.77;66.75;153159.81;10514455;28;20044;-74
2024/04/05 09:23:00;;;;;;;2.30;0.60;;;;;;;17.94;66.56;153202.66;10514242;28;20039;-74
2024/04/05 09:28:20;;;;;;;2.15;0.50;;;;;;;18.05;65.18;153231.19;10531740;28;20513;-73
2024/04/05 09:33:21;;;;;;;2.22;0.90;;;;;;;18.13;67.15;153251.97;10514378;28;20040;-74
2024/04/05 09:38:24;;;;;;;2.08;0.52;;;;;;;17.98;65.22;153213.03;10530226;28;20488;-74
2024/04/05 09:43:26;;;;;;;2.42;0.50;;;;;;;17.92;65.45;153198.72;10529556;28;20089;-74
2024/04/05 09:48:32;;;;;;;0.98;0.47;;;;;;;17.97;66.07;153210.41;10513545;28;20442;-74
2024/04/05 09:53:36;;;;;;;1.92;0.30;;;;;;;18.12;65.80;153250.69;10530448;28;20043;-74
2024/04/05 09:58:37;;;;;;;1.80;0.45;;;;;;;18.38;63.52;153315.59;10529796;28;20089;-73
2024/04/05 10:03:39;;;;;;;1.25;0.40;;;;;;;18.93;62.49;153455.88;10529083;28;20522;-73
2024/04/05 10:08:41;;;;;;;3.85;0.50;;;;;;;19.76;59.85;153667.72;10529036;28;20036;-74
2024/04/05 10:13:42;;;;;;;2.05;0.50;;;;;;;20.54;57.82;153865.34;10528823;28;20074;-73
2024/04/05 10:18:43;;;;;;;2.45;0.60;;;;;;;20.40;56.39;153831.50;10528573;28;20085;-73
2024/04/05 10:23:44;;;;;;;1.17;0.40;;;;;;;20.48;55.99;153849.75;10528871;28;20070;-73
2024/04/05 10:28:48;;;;;;;0.95;0.40;;;;;;;20.46;56.35;153845.81;10529127;28;20048;-73
2024/04/05 10:33:48;;;;;;;0.75;0.30;;;;;;;20.20;56.77;153778.22;10528626;28;20411;-73
2024/04/05 10:38:49;;;;;;;1.63;0.55;;;;;;;20.54;57.36;153866.69;10528394;28;20063;-73
2024/04/05 10:44:02;;;;;;;2.25;0.68;;;;;;;20.88;53.81;153952.50;10511294;28;20044;-73
2024/04/05 10:49:04;;;;;;;2.40;0.50;;;;;;;21.20;52.36;154033.13;10529139;28;20062;-73
2024/04/05 10:54:15;;;;;;;1.92;0.43;;;;;;;21.07;52.40;154000.59;10510239;28;20100;-73
2024/04/05 10:59:19;;;;;;;1.20;0.45;;;;;;;20.82;53.23;153936.91;10527501;28;20032;-72
2024/04/05 11:04:26;;;;;;;0.90;0.28;;;;;;;21.32;53.29;154065.69;10495086;28;20056;-74
2024/04/05 11:09:35;;;;;;;2.00;0.40;;;;;;;21.76;53.83;154177.59;10527406;28;20416;-73
2024/04/05 11:14:36;;;;;;;1.77;0.43;;;;;;;21.33;50.73;154067.00;10526329;28;20530;-73
2024/04/05 11:19:37;;;;;;;0.77;0.28;;;;;;;21.50;51.64;154109.94;10509753;28;20044;-72
2024/04/05 11:24:37;;;;;;;1.05;0.30;;;;;;;21.77;50.65;154178.91;10525811;28;20028;-73
2024/04/05 11:29:39;;;;;;;2.03;1.23;;;;;;;21.42;51.16;154090.41;10556143;28;20042;-74
2024/04/05 11:34:39;;;;;;;1.13;0.35;;;;;;;21.61;51.27;154139.88;10568246;28;20047;-72
2024/04/05 11:39:42;;;;;;;0.28;0.20;;;;;;;21.83;49.77;154195.84;10550100;28;20445;-74
2024/04/05 11:44:43;;;;;;;0.45;0.30;;;;;;;21.77;50.68;154178.91;10566738;28;20518;-72
2024/04/05 11:49:44;;;;;;;0.95;0.28;;;;;;;21.74;49.28;154171.13;10551098;28;20036;-73
2024/04/05 11:54:46;;;;;;;0.75;0.20;;;;;;;22.14;48.61;154275.28;10566392;28;20039;-73
2024/04/05 11:59:47;;;;;;;1.25;0.35;;;;;;;22.11;49.18;154267.41;10566625;28;20043;-74
2024/04/05 12:04:49;;;;;;;0.55;0.28;;;;;;;22.50;47.90;154366.41;10566645;28;20031;-74
2024/04/05 12:09:49;;;;;;;1.38;0.30;;;;;;;22.41;48.82;154342.97;10566856;28;20105;-74
2024/04/05 12:14:51;;;;;;;1.25;0.30;;;;;;;22.73;47.49;154425.00;10548922;28;20507;-74
2024/04/05 12:19:53;;;;;;;0.77;0.20;;;;;;;22.48;47.23;154361.16;10565736;28;20101;-74
2024/04/05 12:24:54;;;;;;;0.28;0.20;;;;;;;22.52;45.78;154371.59;10565518;28;20080;-73
2024/04/05 12:29:55;;;;;;;0.70;0.30;;;;;;;22.16;47.65;154279.16;10565976;28;20329;-74
2024/04/05 12:34:56;;;;;;;0.35;0.20;;;;;;;22.10;48.09;154264.81;10565520;28;20403;-74
2024/04/05 12:39:57;;;;;;;0.85;0.30;;;;;;;21.99;47.70;154234.88;10565702;28;20042;-75
2024/04/05 12:44:58;;;;;;;0.70;0.20;;;;;;;21.89;48.13;154210.16;10564855;28;20039;-73
2024/04/05 12:49:59;;;;;;;0.65;0.20;;;;;;;22.05;49.05;154250.50;10565351;28;20100;-73
2024/04/05 12:55:00;;;;;;;0.25;0.20;;;;;;;21.48;49.40;154104.75;10564644;28;20131;-73
2024/04/05 13:00:02;;;;;;;0.68;0.30;;;;;;;21.17;51.67;154027.94;10547931;28;20115;-74
2024/04/05 13:05:03;;;;;;;2.10;0.38;;;;;;;21.26;51.18;154048.75;10565134;28;20050;-74
2024/04/05 13:10:05;;;;;;;0.57;0.20;;;;;;;21.56;49.07;154125.53;10565550;28;20066;-73
2024/04/05 13:15:05;;;;;;;1.90;0.28;;;;;;;21.39;50.27;154082.63;10547948;28;20040;-73
2024/04/05 13:20:07;;;;;;;1.00;0.20;;;;;;;21.55;50.69;154124.25;10564908;28;20117;-73
2024/04/05 13:25:08;;;;;;;0.40;0.30;;;;;;;21.39;48.35;154083.94;10564486;28;20032;-73
2024/04/05 13:30:09;;;;;;;1.45;0.20;;;;;;;21.23;49.31;154042.25;10564845;28;20039;-73
2024/04/05 13:35:10;;;;;;;0.25;0.10;;;;;;;21.18;47.58;154029.25;10564800;28;20484;-73
2024/04/05 13:40:11;;;;;;;0.10;0.10;;;;;;;20.95;48.91;153970.72;10548565;28;20047;-73
2024/04/05 13:45:12;;;;;;;0.65;0.13;;;;;;;20.98;50.67;153977.19;10565111;28;20032;-74
2024/04/05 13:50:13;;;;;;;0.93;0.20;;;;;;;21.08;47.57;154004.53;10565596;28;20495;-74
2024/04/05 13:55:14;;;;;;;0.28;0.20;;;;;;;20.99;48.86;153979.84;10552256;28;20070;-73
2024/04/05 14:00:16;;;;;;;0.25;0.10;;;;;;;21.28;49.58;154055.25;10573444;28;20054;-72
2024/04/05 14:05:17;;;;;;;1.42;0.17;;;;;;;21.33;47.25;154067.00;10556331;28;20065;-73
2024/04/05 14:10:18;;;;;;;0.60;0.20;;;;;;;21.28;48.66;154055.25;10574999;28;20062;-73
2024/04/05 14:15:19;;;;;;;0.35;0.15;;;;;;;21.70;47.81;154160.72;10575118;28;20036;-73
2024/04/05 14:20:20;;;;;;;0.90;0.10;;;;;;;22.10;47.18;154264.81;10556483;28;20047;-73
2024/04/05 14:25:21;;;;;;;1.15;0.10;;;;;;;22.31;44.11;154316.91;10571702;28;20053;-74
2024/04/05 14:30:22;;;;;;;1.05;0.22;;;;;;;22.07;45.87;154257.00;10572364;28;20150;-74
2024/04/05 14:35:23;;;;;;;0.60;0.30;;;;;;;21.70;48.41;154162.00;10570653;28;20039;-75
2024/04/05 14:40:24;;;;;;;0.57;0.30;;;;;;;21.81;48.12;154190.63;10571405;28;20134;-73
2024/04/05 14:45:26;;;;;;;0.20;0.10;;;;;;;21.59;49.32;154133.34;10569938;28;20486;-74
2024/04/05 14:50:27;;;;;;;0.52;0.30;;;;;;;21.30;50.14;154060.47;10553760;28;20075;-73
2024/04/05 14:55:29;;;;;;;0.63;0.20;;;;;;;21.32;50.83;154064.41;10571190;28;20146;-73
2024/04/05 15:00:30;;;;;;;0.20;0.20;;;;;;;21.28;51.38;154053.94;10570471;28;20530;-75
2024/04/05 15:05:31;;;;;;;0.55;0.30;;;;;;;21.14;51.40;154020.13;10569793;28;20078;-73
2024/04/05 15:10:32;;;;;;;1.02;0.25;;;;;;;21.20;50.25;154034.41;10570594;28;20043;-74
2024/04/05 15:15:33;;;;;;;0.20;0.10;;;;;;;21.15;49.24;154022.72;10552584;28;20441;-75
2024/04/05 15:20:33;;;;;;;0.30;0.15;;;;;;;21.10;50.88;154008.41;10551504;28;20065;-72
2024/04/05 15:25:35;;;;;;;0.55;0.10;;;;;;;20.89;49.06;153956.41;10569555;28;20131;-73
2024/04/05 15:30:35;;;;;;;0.30;0.20;;;;;;;20.94;50.35;153966.78;10572157;28;20039;-73
2024/04/05 15:35:37;;;;;;;0.10;0.10;;;;;;;20.75;50.72;153918.69;10570550;28;20104;-72
2024/04/05 15:40:38;;;;;;;0.77;0.25;;;;;;;20.68;51.42;153900.50;10573011;28;20035;-73
2024/04/05 15:45:41;;;;;;;1.08;0.35;;;;;;;20.53;52.38;153862.75;10569697;28;20039;-75
2024/04/05 15:50:42;;;;;;;0.43;0.40;;;;;;;20.45;53.66;153843.19;10572083;28;20093;-75
2024/04/05 15:55:45;;;;;;;0.82;0.30;;;;;;;20.46;54.28;153844.53;10569135;28;20384;-73
2024/04/05 16:00:47;;;;;;;1.02;0.40;;;;;;;20.44;57.51;153839.31;10564235;27;20043;-74
2024/04/05 16:05:47;;;;;;;0.63;0.30;;;;;;;20.25;58.63;153791.22;10549081;28;20043;-73
2024/04/05 16:10:53;;;;;;;0.52;0.30;;;;;;;20.15;61.07;153766.53;10567267;28;20039;-73
2024/04/05 16:16:03;;;;;;;1.00;0.40;;;;;;;20.03;58.90;153736.59;10550670;28;20039;-73
2024/04/05 16:21:04;;;;;;;1.70;0.60;;;;;;;19.89;59.16;153700.22;10565521;28;20039;-73
2024/04/05 16:26:08;;;;;;;1.30;0.60;;;;;;;19.77;60.83;153669.03;10566589;28;20054;-73
2024/04/05 16:31:17;;;;;;;0.85;0.85;;;;;;;19.63;60.81;153635.22;10566110;28;20093;-73
2024/04/05 16:36:17;;;;;;;0.50;0.38;;;;;;;19.48;63.15;153594.88;10547246;28;20039;-74
2024/04/05 16:41:21;;;;;;;0.73;0.40;;;;;;;19.40;62.31;153576.72;10565437;28;20126;-74
2024/04/05 16:46:22;;;;;;;0.50;0.35;;;;;;;19.40;61.83;153576.72;10549217;28;20047;-75
2024/04/05 16:51:23;;;;;;;0.60;0.40;;;;;;;19.21;64.02;153526.03;10565232;28;20392;-75
2024/04/05 16:56:24;;;;;;;0.45;0.30;;;;;;;19.14;64.18;153510.44;10564227;28;20567;-73
2024/04/05 17:01:25;;;;;;;0.35;0.30;;;;;;;19.20;63.25;153523.44;10565147;28;20406;-74
2024/04/05 17:06:31;;;;;;;0.47;0.40;;;;;;;19.28;62.15;153544.22;10565471;28;20050;-74
2024/04/05 17:11:32;;;;;;;0.60;0.30;;;;;;;19.28;61.69;153544.22;10548477;28;20047;-74
2024/04/05 17:16:33;;;;;;;0.50;0.20;;;;;;;19.28;60.81;153545.53;10531636;28;20048;-74
2024/04/05 17:21:34;;;;;;;0.63;0.40;;;;;;;19.36;60.14;153565.03;10565051;28;20043;-74
2024/04/05 17:26:35;;;;;;;0.90;0.52;;;;;;;19.17;61.31;153516.97;10549523;28;20047;-74
2024/04/05 17:31:36;;;;;;;0.52;0.20;;;;;;;19.21;61.06;153526.03;10554730;28;20032;-74
2024/04/05 17:36:37;;;;;;;2.38;0.50;;;;;;;19.09;61.26;153496.19;10540502;28;20572;-74
2024/04/05 17:41:38;;;;;;;0.55;0.45;;;;;;;19.05;61.70;153487.06;10573681;28;20089;-75
2024/04/05 17:46:39;;;;;;;1.45;0.38;;;;;;;18.88;62.02;153444.19;10573756;28;20055;-74
2024/04/05 17:51:40;;;;;;;0.77;0.40;;;;;;;18.70;62.95;153396.16;10572357;28;20043;-74
2024/04/05 17:56:40;;;;;;;0.57;0.22;;;;;;;18.79;62.20;153419.53;10554661;28;20142;-73
2024/04/05 18:01:45;;;;;;;0.98;0.28;;;;;;;18.79;62.03;153419.53;10572009;28;20377;-73
2024/04/05 18:06:48;;;;;;;0.55;0.20;;;;;;;18.74;62.75;153406.56;10572277;28;20043;-75
2024/04/05 18:11:49;;;;;;;0.40;0.30;;;;;;;18.65;63.46;153385.72;10572026;28;20054;-74
2024/04/05 18:16:50;;;;;;;0.68;0.30;;;;;;;18.46;64.18;153335.03;10571187;28;20384;-74
2024/04/05 18:21:51;;;;;;;1.40;0.38;;;;;;;18.54;64.01;153355.81;10571842;28;20040;-75
2024/04/05 18:26:51;;;;;;;0.60;0.50;;;;;;;18.54;64.13;153357.13;10571384;28;20522;-75
2024/04/05 18:31:55;;;;;;;0.60;0.30;;;;;;;18.55;63.42;153358.41;10571233;28;20126;-73
2024/04/05 18:36:56;;;;;;;1.15;0.40;;;;;;;18.73;62.69;153405.25;10570812;28;20040;-73
2024/04/05 18:41:57;;;;;;;0.63;0.50;;;;;;;18.61;63.76;153375.31;10570202;28;20044;-74
2024/04/05 18:46:59;;;;;;;1.02;0.35;;;;;;;18.60;63.69;153372.72;10569493;28;20040;-74
2024/04/05 18:52:00;;;;;;;0.63;0.28;;;;;;;18.49;64.68;153344.16;10569837;28;20088;-74
2024/04/05 18:57:01;;;;;;;0.80;0.30;;;;;;;18.56;64.19;153361.03;10569190;28;20043;-74
2024/04/05 19:02:07;;;;;;;0.70;0.32;;;;;;;18.57;64.15;153364.94;10570006;28;20082;-76
2024/04/05 19:07:08;;;;;;;0.63;0.30;;;;;;;18.62;63.72;153377.91;10569540;28;20032;-73
2024/04/05 19:12:16;;;;;;;0.50;0.30;;;;;;;18.69;63.14;153394.88;10569488;28;20062;-74
2024/04/05 19:17:17;;;;;;;1.00;0.38;;;;;;;18.53;63.88;153354.53;10570228;28;20051;-74
2024/04/05 19:22:18;;;;;;;0.43;0.32;;;;;;;18.82;62.37;153427.34;10569056;28;20499;-75
2024/04/05 19:27:24;;;;;;;0.47;0.40;;;;;;;18.69;62.47;153393.53;10550332;28;20115;-76
2024/04/05 19:32:25;;;;;;;0.53;0.30;;;;;;;18.65;62.22;153384.41;10568671;28;20510;-74
2024/04/05 19:37:27;;;;;;;0.68;0.40;;;;;;;18.67;61.53;153390.88;10568936;28;20308;-75
2024/04/05 19:42:28;;;;;;;0.43;0.32;;;;;;;18.85;59.82;153436.38;10551979;28;20047;-76
2024/04/05 19:47:29;;;;;;;0.65;0.25;;;;;;;18.89;58.71;153446.78;10568480;28;20035;-74
2024/04/05 19:52:31;;;;;;;0.73;0.32;;;;;;;18.87;58.75;153440.31;10551610;28;20047;-75
2024/04/05 19:57:32;;;;;;;1.08;0.50;;;;;;;18.85;57.68;153435.09;10551356;28;20042;-73
2024/04/05 20:02:32;;;;;;;0.60;0.38;;;;;;;18.87;57.65;153441.63;10569688;28;20392;-75
2024/04/05 20:07:33;;;;;;;0.60;0.30;;;;;;;18.82;57.85;153428.63;10567410;28;20492;-74
2024/04/05 20:12:35;;;;;;;0.45;0.30;;;;;;;18.74;57.82;153407.84;10566495;28;20078;-74
2024/04/05 20:17:36;;;;;;;0.40;0.20;;;;;;;18.59;58.27;153370.16;10550608;28;20046;-74
2024/04/05 20:22:37;;;;;;;0.47;0.30;;;;;;;18.54;58.78;153357.13;10567374;28;20050;-74
2024/04/05 20:27:37;;;;;;;1.02;0.38;;;;;;;18.48;58.91;153340.25;10566975;28;20467;-75
2024/04/05 20:32:38;;;;;;;0.20;0.20;;;;;;;18.43;58.37;153328.56;10566337;28;20169;-74
2024/04/05 20:37:39;;;;;;;0.50;0.30;;;;;;;18.34;58.90;153305.22;10566053;28;20063;-75
2024/04/05 20:42:40;;;;;;;1.73;0.40;;;;;;;18.28;58.91;153290.94;10549016;28;20035;-75
2024/04/05 20:47:41;;;;;;;0.82;0.32;;;;;;;18.21;57.97;153272.75;10566264;28;20032;-75
2024/04/05 20:52:42;;;;;;;0.45;0.25;;;;;;;18.18;57.76;153263.66;10565809;28;20491;-74
2024/04/05 20:57:42;;;;;;;0.55;0.30;;;;;;;18.03;58.20;153227.31;10565723;28;20396;-75
2024/04/05 21:02:43;;;;;;;0.50;0.25;;;;;;;18.03;57.07;153227.31;10548572;28;20044;-75
2024/04/05 21:07:44;;;;;;;0.57;0.38;;;;;;;18.09;56.81;153241.56;10556901;28;20040;-74
2024/04/05 21:12:45;;;;;;;0.57;0.20;;;;;;;18.12;56.65;153250.69;10572997;28;20044;-74
2024/04/05 21:17:45;;;;;;;0.57;0.28;;;;;;;18.02;56.96;153224.72;10573808;28;20031;-75
2024/04/05 21:22:46;;;;;;;1.30;0.20;;;;;;;18.03;56.81;153226.03;10573010;28;20043;-74
2024/04/05 21:27:47;;;;;;;0.88;0.32;;;;;;;18.01;56.88;153222.09;10572802;28;20036;-74
2024/04/05 21:32:48;;;;;;;1.27;0.25;;;;;;;17.89;57.98;153192.28;10572247;28;20071;-74
2024/04/05 21:37:49;;;;;;;0.57;0.30;;;;;;;17.93;57.47;153200.03;10572351;28;20050;-74
2024/04/05 21:42:49;;;;;;;0.30;0.30;;;;;;;17.89;57.46;153190.97;10572310;28;20031;-75
2024/04/05 21:47:51;;;;;;;0.45;0.30;;;;;;;17.83;58.24;153175.38;10571143;28;20047;-75
2024/04/05 21:52:51;;;;;;;0.95;0.30;;;;;;;17.81;58.76;153170.19;10571221;28;20076;-74
2024/04/05 21:57:52;;;;;;;0.20;0.20;;;;;;;17.67;59.29;153133.81;10571292;28;20452;-74
2024/04/05 22:02:54;;;;;;;0.22;0.22;;;;;;;17.74;58.56;153153.31;10571595;28;20533;-74
2024/04/05 22:07:55;;;;;;;0.45;0.20;;;;;;;17.72;58.54;153148.09;10569911;28;20043;-74
2024/04/05 22:12:56;;;;;;;1.08;0.20;;;;;;;17.68;59.01;153136.41;10570266;28;20122;-74
2024/04/05 22:17:57;;;;;;;0.65;0.20;;;;;;;17.58;60.08;153111.75;10570308;28;20376;-73
2024/04/05 22:22:58;;;;;;;0.30;0.10;;;;;;;17.43;61.12;153074.09;10570015;28;20065;-73
2024/04/05 22:28:00;;;;;;;0.88;0.40;;;;;;;17.18;62.28;153009.22;10569410;28;20031;-74
2024/04/05 22:33:02;;;;;;;0.50;0.20;;;;;;;17.21;62.09;153017.00;10552551;28;20063;-75
2024/04/05 22:38:03;;;;;;;0.85;0.47;;;;;;;17.30;61.93;153040.38;10569424;28;20039;-75
2024/04/05 22:43:04;;;;;;;0.52;0.28;;;;;;;17.11;62.91;152992.38;10569403;28;20043;-74
2024/04/05 22:48:05;;;;;;;0.55;0.20;;;;;;;17.22;62.73;153019.59;10568692;28;20066;-74
2024/04/05 22:53:06;;;;;;;0.45;0.20;;;;;;;17.15;62.88;153004.03;10568236;28;20092;-73
2024/04/05 22:58:07;;;;;;;1.50;0.40;;;;;;;17.18;63.29;153010.56;10567644;28;20040;-74
2024/04/05 23:03:07;;;;;;;0.47;0.32;;;;;;;17.15;62.98;153004.03;10567389;28;20092;-74